Time;durP1;ratioP1;P1;durP2;ratioP2;P2;SDS_P1;SDS_P2;PMS_P1;PMS_P2;Temp;Humidity;BMP_temperature;BMP_pressure;BME280_temperature;BME280_humidity;BME280_pressure;Samples;Min_cycle;Max_cycle;Signal;HPM_P1;HPM_P2
2022/04/27 00:00:15;;;;;;;;;;;18.70;52.30;;;;;;4992752;28;1329;-71
2022/04/27 00:02:40;;;;;;;;;;;18.60;52.30;;;;;;4993381;28;1979;-72
2022/04/27 00:05:06;;;;;;;;;;;18.70;52.40;;;;;;4991989;28;1412;-72
2022/04/27 00:07:31;;;;;;;;;;;18.60;52.40;;;;;;4992058;28;1069;-72
2022/04/27 00:09:57;;;;;;;;;;;18.60;52.50;;;;;;4992549;28;1222;-71
2022/04/27 00:12:22;;;;;;;;;;;18.60;52.50;;;;;;5008194;28;1107;-72
2022/04/27 00:14:48;;;;;;;;;;;18.60;52.60;;;;;;4992948;28;1368;-71
2022/04/27 00:17:13;;;;;;;;;;;18.60;52.60;;;;;;4996312;28;1371;-72
2022/04/27 00:19:39;;;;;;;;;;;18.70;52.70;;;;;;4996444;28;1372;-71
2022/04/27 00:22:04;;;;;;;;;;;18.60;52.70;;;;;;4982315;28;1879;-71
2022/04/27 00:24:29;;;;;;;;;;;18.60;52.70;;;;;;4989204;28;1210;-71
2022/04/27 00:26:55;;;;;;;;;;;18.60;52.80;;;;;;4992448;28;1076;-71
2022/04/27 00:29:20;;;;;;;;;;;18.60;52.80;;;;;;4992576;28;1641;-71
2022/04/27 00:31:46;;;;;;;;;;;18.60;52.90;;;;;;4993073;28;1053;-71
2022/04/27 00:34:11;;;;;;;;;;;18.60;53.00;;;;;;4978929;28;1065;-71
2022/04/27 00:36:37;;;;;;;;;;;18.60;53.00;;;;;;4995136;28;1337;-71
2022/04/27 00:39:02;;;;;;;;;;;18.60;53.00;;;;;;4996454;28;1356;-71
2022/04/27 00:41:28;;;;;;;;;;;18.60;53.10;;;;;;4992690;28;1394;-72
2022/04/27 00:43:54;;;;;;;;;;;18.60;53.10;;;;;;4992910;28;1902;-71
2022/04/27 00:46:20;;;;;;;;;;;18.60;53.20;;;;;;4991169;28;1304;-71
2022/04/27 00:48:45;;;;;;;;;;;18.60;53.20;;;;;;4990391;28;1310;-72
2022/04/27 00:51:12;;;;;;;;;;;18.60;53.20;;;;;;4992761;28;1308;-72
2022/04/27 00:53:37;;;;;;;;;;;18.60;53.30;;;;;;4991571;28;1285;-71
2022/04/27 00:56:03;;;;;;;;;;;18.60;53.30;;;;;;4992174;28;1115;-71
2022/04/27 00:58:28;;;;;;;;;;;18.60;53.30;;;;;;4990532;28;1375;-72
2022/04/27 01:00:54;;;;;;;;;;;18.60;53.30;;;;;;4991579;28;1077;-72
2022/04/27 01:03:19;;;;;;;;;;;18.60;53.40;;;;;;4992378;28;1957;-71
2022/04/27 01:05:45;;;;;;;;;;;18.60;53.50;;;;;;4991300;28;1305;-71
2022/04/27 01:08:11;;;;;;;;;;;18.60;53.50;;;;;;4990206;28;1338;-71
2022/04/27 01:10:36;;;;;;;;;;;18.60;53.50;;;;;;5007193;28;2014;-72
2022/04/27 01:13:02;;;;;;;;;;;18.60;53.50;;;;;;4989522;28;2671;-71
2022/04/27 01:15:33;;;;;;;;;;;18.60;53.50;;;;;;4989888;28;2557;-71
2022/04/27 01:17:59;;;;;;;;;;;18.60;53.60;;;;;;4989862;28;1303;-71
2022/04/27 01:20:24;;;;;;;;;;;18.60;53.60;;;;;;5009045;28;1451;-71
2022/04/27 01:22:49;;;;;;;;;;;18.60;53.70;;;;;;4996207;28;1965;-72
2022/04/27 01:25:15;;;;;;;;;;;18.60;53.70;;;;;;4994136;28;1204;-72
2022/04/27 01:27:41;;;;;;;;;;;18.60;53.70;;;;;;5010132;28;1163;-72
2022/04/27 01:30:08;;;;;;;;;;;18.60;53.80;;;;;;4995959;28;1295;-72
2022/04/27 01:32:33;;;;;;;;;;;18.60;53.80;;;;;;4996293;28;1287;-72
2022/04/27 01:34:59;;;;;;;;;;;18.60;53.80;;;;;;4996003;28;1329;-72
2022/04/27 01:38:00;;;;;;;;;;;18.60;53.80;;;;;;5002960;28;1260;-71
2022/04/27 01:40:10;;;;;;;;;;;18.60;53.90;;;;;;4995138;28;1390;-72
2022/04/27 01:42:35;;;;;;;;;;;18.60;53.90;;;;;;4995844;28;1898;-72
2022/04/27 01:45:02;;;;;;;;;;;18.60;54.00;;;;;;4995814;28;1402;-71
2022/04/27 01:47:27;;;;;;;;;;;18.60;54.00;;;;;;4995321;28;1283;-72
2022/04/27 01:49:52;;;;;;;;;;;18.60;54.00;;;;;;4994135;28;1291;-71
2022/04/27 01:55:02;;;;;;;;;;;18.60;54.00;;;;;;4989326;28;1862;-70
2022/04/27 01:57:27;;;;;;;;;;;18.60;54.10;;;;;;4991039;28;1744;-71
2022/04/27 01:59:54;;;;;;;;;;;18.60;54.10;;;;;;4990506;28;1317;-71
2022/04/27 02:02:20;;;;;;;;;;;18.60;54.10;;;;;;4991111;28;1936;-73
2022/04/27 02:04:46;;;;;;;;;;;18.60;54.20;;;;;;5004168;28;1264;-71
2022/04/27 02:07:11;;;;;;;;;;;18.60;54.20;;;;;;4991939;28;1199;-72
2022/04/27 02:09:36;;;;;;;;;;;18.60;54.30;;;;;;4982860;28;1914;-71
2022/04/27 02:12:03;;;;;;;;;;;18.60;54.30;;;;;;4992761;28;1295;-72
2022/04/27 02:14:28;;;;;;;;;;;18.50;54.30;;;;;;4981989;28;1416;-71
2022/04/27 02:16:54;;;;;;;;;;;18.60;54.30;;;;;;4988673;28;1339;-71
2022/04/27 02:19:21;;;;;;;;;;;18.60;54.30;;;;;;4997946;28;1279;-70
2022/04/27 02:21:47;;;;;;;;;;;18.60;54.40;;;;;;4989182;28;1105;-71
2022/04/27 02:24:12;;;;;;;;;;;18.60;54.40;;;;;;4988481;28;1902;-71
2022/04/27 02:26:37;;;;;;;;;;;18.50;54.40;;;;;;4995166;28;903;-70
2022/04/27 02:29:03;;;;;;;;;;;18.50;54.40;;;;;;4995056;28;1297;-71
2022/04/27 02:31:28;;;;;;;;;;;18.60;54.50;;;;;;4994927;28;1295;-71
2022/04/27 02:33:54;;;;;;;;;;;18.50;54.40;;;;;;4995338;28;1295;-70
2022/04/27 02:36:19;;;;;;;;;;;18.50;54.50;;;;;;4996649;28;1307;-70
2022/04/27 02:38:45;;;;;;;;;;;18.50;54.50;;;;;;5016538;28;1382;-71
2022/04/27 02:41:10;;;;;;;;;;;18.50;54.60;;;;;;4995164;28;1426;-70
2022/04/27 02:43:36;;;;;;;;;;;18.50;54.60;;;;;;4982577;28;1898;-70
2022/04/27 02:46:01;;;;;;;;;;;18.50;54.60;;;;;;4981955;28;1330;-70
2022/04/27 02:48:27;;;;;;;;;;;18.50;54.60;;;;;;4994428;28;1262;-70
2022/04/27 02:53:36;;;;;;;;;;;18.50;54.70;;;;;;4995009;28;1273;-70
2022/04/27 02:56:03;;;;;;;;;;;18.50;54.70;;;;;;4995475;28;1420;-71
2022/04/27 02:58:28;;;;;;;;;;;18.50;54.70;;;;;;4994618;28;1263;-71
2022/04/27 03:00:54;;;;;;;;;;;18.50;54.70;;;;;;4994721;28;1076;-70
2022/04/27 03:03:19;;;;;;;;;;;18.50;54.80;;;;;;4994652;28;1961;-70
2022/04/27 03:05:44;;;;;;;;;;;18.50;54.80;;;;;;4984663;28;1651;-70
2022/04/27 03:08:10;;;;;;;;;;;18.50;54.80;;;;;;4988639;28;1271;-70
2022/04/27 03:10:35;;;;;;;;;;;18.50;54.90;;;;;;5010055;28;1289;-70
2022/04/27 03:13:01;;;;;;;;;;;18.50;54.90;;;;;;4993349;28;1275;-70
2022/04/27 03:15:27;;;;;;;;;;;18.50;54.90;;;;;;4994783;28;833;-70
2022/04/27 03:20:37;;;;;;;;;;;18.50;55.00;;;;;;4994736;28;1316;-71
2022/04/27 03:23:02;;;;;;;;;;;18.50;55.00;;;;;;4994450;28;1919;-71
2022/04/27 03:25:27;;;;;;;;;;;18.50;55.00;;;;;;4984429;28;1052;-70
2022/04/27 03:27:53;;;;;;;;;;;18.50;55.00;;;;;;4990604;28;1300;-70
2022/04/27 03:30:18;;;;;;;;;;;18.50;55.00;;;;;;4984229;28;1230;-70
2022/04/27 03:32:44;;;;;;;;;;;18.50;55.10;;;;;;4991644;28;1231;-71
2022/04/27 03:35:09;;;;;;;;;;;18.50;55.00;;;;;;4994568;28;1299;-72
2022/04/27 03:37:35;;;;;;;;;;;18.50;55.10;;;;;;4992967;28;895;-70
2022/04/27 03:40:00;;;;;;;;;;;18.50;55.10;;;;;;4994069;28;1307;-69
2022/04/27 03:42:25;;;;;;;;;;;18.50;55.10;;;;;;4990318;28;1898;-70
2022/04/27 03:44:51;;;;;;;;;;;18.50;55.20;;;;;;4974682;28;849;-70
2022/04/27 03:47:16;;;;;;;;;;;18.50;55.20;;;;;;4989779;28;1119;-72
2022/04/27 03:49:42;;;;;;;;;;;18.50;55.20;;;;;;4993707;28;1277;-73
2022/04/27 03:52:07;;;;;;;;;;;18.50;55.20;;;;;;4993875;28;1381;-72
2022/04/27 03:54:33;;;;;;;;;;;18.50;55.30;;;;;;4993924;28;1276;-73
2022/04/27 03:56:58;;;;;;;;;;;18.50;55.20;;;;;;4993200;28;1424;-72
2022/04/27 03:59:24;;;;;;;;;;;18.50;55.30;;;;;;4992783;28;1223;-74
2022/04/27 04:01:49;;;;;;;;;;;18.50;55.30;;;;;;4993747;28;1089;-71
2022/04/27 04:04:15;;;;;;;;;;;18.50;55.30;;;;;;4993588;28;1895;-71
2022/04/27 04:06:40;;;;;;;;;;;18.50;55.30;;;;;;4993684;28;1334;-70
2022/04/27 04:09:06;;;;;;;;;;;18.50;55.30;;;;;;4982721;28;1303;-71
2022/04/27 04:11:31;;;;;;;;;;;18.50;55.40;;;;;;4993362;28;1052;-70
2022/04/27 04:13:57;;;;;;;;;;;18.50;55.40;;;;;;4992880;28;1376;-71
2022/04/27 04:16:22;;;;;;;;;;;18.50;55.40;;;;;;4989759;28;1268;-70
2022/04/27 04:18:47;;;;;;;;;;;18.50;55.40;;;;;;4999930;28;1366;-72
2022/04/27 04:21:13;;;;;;;;;;;18.50;55.50;;;;;;4993184;28;1354;-72
2022/04/27 04:23:38;;;;;;;;;;;18.50;55.50;;;;;;4993496;28;1911;-72
2022/04/27 04:28:48;;;;;;;;;;;18.50;55.50;;;;;;4991992;28;1303;-72
2022/04/27 04:31:14;;;;;;;;;;;18.40;55.50;;;;;;4992013;28;1229;-72
2022/04/27 04:33:39;;;;;;;;;;;18.50;55.60;;;;;;4993518;28;1068;-70
2022/04/27 04:36:05;;;;;;;;;;;18.50;55.60;;;;;;4993299;28;997;-70
2022/04/27 04:38:30;;;;;;;;;;;18.50;55.60;;;;;;5000231;28;1274;-72
2022/04/27 04:40:56;;;;;;;;;;;18.50;55.60;;;;;;4992585;28;1361;-71
2022/04/27 04:43:21;;;;;;;;;;;18.50;55.60;;;;;;4993185;28;1898;-71
2022/04/27 04:45:47;;;;;;;;;;;18.40;55.60;;;;;;4991914;28;1141;-72
2022/04/27 04:48:12;;;;;;;;;;;18.50;55.60;;;;;;4991271;28;1419;-71
2022/04/27 04:50:38;;;;;;;;;;;18.50;55.70;;;;;;4993092;28;1203;-71
2022/04/27 04:53:04;;;;;;;;;;;18.40;55.60;;;;;;4993091;28;1160;-71
2022/04/27 04:55:29;;;;;;;;;;;18.40;55.60;;;;;;4984147;28;1032;-71
2022/04/27 04:57:55;;;;;;;;;;;18.50;55.70;;;;;;4996618;28;1135;-70
2022/04/27 05:00:20;;;;;;;;;;;18.50;55.80;;;;;;4997123;28;1112;-70
2022/04/27 05:02:46;;;;;;;;;;;18.50;55.80;;;;;;4997504;28;1902;-71
2022/04/27 05:05:11;;;;;;;;;;;18.40;55.70;;;;;;4997022;28;1313;-70
2022/04/27 05:07:37;;;;;;;;;;;18.40;55.80;;;;;;4995072;28;1176;-71
2022/04/27 05:10:02;;;;;;;;;;;18.50;55.80;;;;;;4995280;28;1340;-71
2022/04/27 05:12:28;;;;;;;;;;;18.50;55.80;;;;;;4994989;28;1136;-71
2022/04/27 05:14:53;;;;;;;;;;;18.50;55.80;;;;;;4996765;28;1344;-71
2022/04/27 05:17:19;;;;;;;;;;;18.50;55.70;;;;;;5000617;28;1264;-71
2022/04/27 05:19:44;;;;;;;;;;;18.50;55.60;;;;;;4999137;28;1309;-71
2022/04/27 05:22:10;;;;;;;;;;;18.60;55.60;;;;;;4996158;28;1967;-71
2022/04/27 05:24:35;;;;;;;;;;;18.60;55.60;;;;;;4996764;28;1255;-71
2022/04/27 05:27:00;;;;;;;;;;;18.60;56.10;;;;;;4996185;28;1311;-72
2022/04/27 05:32:13;;;;;;;;;;;18.70;55.40;;;;;;4988328;28;1785;-70
2022/04/27 05:34:38;;;;;;;;;;;18.70;55.30;;;;;;4996493;28;1346;-71
2022/04/27 05:37:04;;;;;;;;;;;18.70;55.20;;;;;;4997172;28;1391;-70
2022/04/27 05:39:29;;;;;;;;;;;18.80;55.20;;;;;;5005610;28;1495;-71
2022/04/27 05:41:55;;;;;;;;;;;18.80;55.20;;;;;;4995624;28;1672;-71
2022/04/27 05:44:22;;;;;;;;;;;18.80;55.20;;;;;;4996410;28;1891;-71
2022/04/27 05:46:47;;;;;;;;;;;18.80;55.10;;;;;;4995855;28;1379;-70
2022/04/27 05:49:13;;;;;;;;;;;18.80;55.10;;;;;;4994251;28;1769;-71
2022/04/27 05:51:38;;;;;;;;;;;18.90;55.10;;;;;;4996054;28;1690;-70
2022/04/27 05:54:04;;;;;;;;;;;18.90;55.10;;;;;;4994516;28;1440;-71
2022/04/27 05:56:29;;;;;;;;;;;18.90;55.00;;;;;;4995205;28;1396;-70
2022/04/27 05:58:54;;;;;;;;;;;18.90;55.00;;;;;;4995229;28;1482;-70
2022/04/27 06:01:20;;;;;;;;;;;18.90;55.00;;;;;;4995831;28;1646;-70
2022/04/27 06:03:45;;;;;;;;;;;18.90;55.00;;;;;;4996018;28;1961;-70
2022/04/27 06:06:11;;;;;;;;;;;18.90;55.00;;;;;;5010502;28;1646;-70
2022/04/27 06:08:36;;;;;;;;;;;18.90;54.90;;;;;;4994799;28;1646;-71
2022/04/27 06:11:02;;;;;;;;;;;18.90;54.90;;;;;;4995606;28;1641;-71
2022/04/27 06:13:27;;;;;;;;;;;19.00;55.00;;;;;;4995860;28;1709;-70
2022/04/27 06:15:52;;;;;;;;;;;18.90;54.90;;;;;;4995644;28;1693;-71
2022/04/27 06:18:18;;;;;;;;;;;19.00;54.90;;;;;;4982994;28;2200;-68
2022/04/27 06:20:43;;;;;;;;;;;18.90;54.90;;;;;;4992186;28;1416;-69
2022/04/27 06:23:09;;;;;;;;;;;19.00;54.90;;;;;;4994477;28;1966;-69
2022/04/27 06:25:35;;;;;;;;;;;19.00;55.00;;;;;;4994780;28;1627;-71
2022/04/27 06:28:01;;;;;;;;;;;19.00;54.90;;;;;;4993806;28;1678;-69
2022/04/27 06:30:27;;;;;;;;;;;19.00;54.90;;;;;;4993368;28;1456;-70
2022/04/27 06:32:52;;;;;;;;;;;19.00;54.90;;;;;;4994650;28;1372;-71
2022/04/27 06:35:18;;;;;;;;;;;19.00;54.90;;;;;;4995048;28;1621;-71
2022/04/27 06:37:43;;;;;;;;;;;19.00;54.90;;;;;;5002151;28;1620;-68
2022/04/27 06:40:09;;;;;;;;;;;19.00;54.90;;;;;;4994056;28;1295;-71
2022/04/27 06:42:35;;;;;;;;;;;19.00;54.90;;;;;;4993433;28;1895;-71
2022/04/27 06:45:03;;;;;;;;;;;19.00;54.90;;;;;;4994676;28;1691;-74
2022/04/27 06:47:29;;;;;;;;;;;19.00;54.90;;;;;;4991977;28;1401;-70
2022/04/27 06:49:54;;;;;;;;;;;19.00;54.80;;;;;;4991614;28;1503;-71
2022/04/27 06:52:20;;;;;;;;;;;19.10;54.90;;;;;;4996819;28;1593;-69
2022/04/27 06:54:45;;;;;;;;;;;19.10;54.90;;;;;;4986756;28;1663;-68
2022/04/27 06:57:11;;;;;;;;;;;19.10;54.90;;;;;;4990806;28;1644;-67
2022/04/27 06:59:36;;;;;;;;;;;19.10;54.90;;;;;;4993953;28;1406;-67
2022/04/27 07:02:02;;;;;;;;;;;19.10;54.80;;;;;;4993418;28;1895;-66
2022/04/27 07:04:27;;;;;;;;;;;19.20;54.80;;;;;;4994236;28;1352;-66
2022/04/27 07:06:53;;;;;;;;;;;19.20;54.70;;;;;;4993975;28;1384;-67
2022/04/27 07:09:18;;;;;;;;;;;19.30;54.60;;;;;;4993180;28;1544;-66
2022/04/27 07:11:44;;;;;;;;;;;19.40;54.50;;;;;;4994468;28;1376;-65
2022/04/27 07:14:11;;;;;;;;;;;19.50;54.50;;;;;;4994889;28;1663;-68
2022/04/27 07:16:37;;;;;;;;;;;19.60;54.30;;;;;;4994143;28;1730;-67
2022/04/27 07:19:02;;;;;;;;;;;19.70;54.10;;;;;;5000151;28;1417;-66
2022/04/27 07:21:28;;;;;;;;;;;19.80;54.10;;;;;;4994367;28;1410;-67
2022/04/27 07:23:53;;;;;;;;;;;19.90;53.90;;;;;;4994798;28;1964;-67
2022/04/27 07:26:19;;;;;;;;;;;20.00;53.60;;;;;;4993974;28;1720;-66
2022/04/27 07:28:44;;;;;;;;;;;20.00;53.40;;;;;;4993735;28;1360;-66
2022/04/27 07:31:10;;;;;;;;;;;20.10;53.30;;;;;;4994397;28;1731;-66
2022/04/27 07:33:35;;;;;;;;;;;20.20;53.10;;;;;;4994194;28;1633;-66
2022/04/27 07:36:01;;;;;;;;;;;20.20;53.00;;;;;;4992411;28;1442;-66
2022/04/27 07:38:42;;;;;;;;;;;20.30;52.90;;;;;;5123430;27;1700;-66
2022/04/27 07:41:08;;;;;;;;;;;20.30;52.80;;;;;;5089061;28;2138;-67
2022/04/27 07:43:33;;;;;;;;;;;20.30;52.80;;;;;;5069181;28;1277;-67
2022/04/27 07:45:59;;;;;;;;;;;20.40;52.80;;;;;;5089562;28;1815;-67
2022/04/27 07:48:24;;;;;;;;;;;20.40;52.80;;;;;;5089210;28;1271;-66
2022/04/27 07:50:50;;;;;;;;;;;20.40;52.80;;;;;;5090357;28;1518;-67
2022/04/27 07:53:16;;;;;;;;;;;20.40;52.80;;;;;;5090160;28;1355;-67
2022/04/27 07:55:41;;;;;;;;;;;20.40;52.80;;;;;;5122600;28;1731;-67
2022/04/27 07:58:06;;;;;;;;;;;20.40;52.70;;;;;;5089428;28;1906;-66
2022/04/27 08:00:32;;;;;;;;;;;20.40;52.80;;;;;;5090074;28;1614;-67
2022/04/27 08:02:58;;;;;;;;;;;20.40;52.80;;;;;;5090042;28;1329;-67
2022/04/27 08:05:23;;;;;;;;;;;20.30;52.80;;;;;;5090235;28;1343;-67
2022/04/27 08:07:49;;;;;;;;;;;20.40;52.80;;;;;;5088632;28;1587;-67
2022/04/27 08:10:15;;;;;;;;;;;20.30;52.90;;;;;;5088546;28;1753;-68
2022/04/27 08:12:42;;;;;;;;;;;20.30;52.90;;;;;;5088841;28;2230;-71
2022/04/27 08:15:08;;;;;;;;;;;20.30;53.00;;;;;;5088652;28;1400;-70
2022/04/27 08:17:33;;;;;;;;;;;20.30;53.00;;;;;;5088742;28;1909;-70
2022/04/27 08:22:43;;;;;;;;;;;20.20;53.10;;;;;;5117204;28;1283;-69
2022/04/27 08:25:09;;;;;;;;;;;20.20;53.20;;;;;;5089275;28;1269;-70
2022/04/27 08:27:34;;;;;;;;;;;20.20;53.30;;;;;;5088241;28;1206;-70
2022/04/27 08:29:59;;;;;;;;;;;20.10;53.30;;;;;;5089399;28;1301;-70
2022/04/27 08:32:25;;;;;;;;;;;20.10;53.40;;;;;;5087694;28;1279;-69
2022/04/27 08:34:50;;;;;;;;;;;20.10;53.50;;;;;;5088079;28;1333;-70
2022/04/27 08:37:16;;;;;;;;;;;20.10;53.60;;;;;;5088252;28;1926;-70
2022/04/27 08:39:41;;;;;;;;;;;20.10;53.70;;;;;;5088609;28;1198;-67
2022/04/27 08:42:09;;;;;;;;;;;20.00;53.70;;;;;;5087682;28;1206;-67
2022/04/27 08:44:34;;;;;;;;;;;20.00;53.80;;;;;;5081443;28;860;-68
2022/04/27 08:47:00;;;;;;;;;;;20.00;53.80;;;;;;5100657;28;1426;-68
2022/04/27 08:49:25;;;;;;;;;;;20.00;53.90;;;;;;5057392;28;1306;-69
2022/04/27 08:51:51;;;;;;;;;;;19.90;54.00;;;;;;5055084;28;1347;-67
2022/04/27 08:54:17;;;;;;;;;;;19.90;54.00;;;;;;5055404;28;1254;-68
2022/04/27 08:56:42;;;;;;;;;;;19.90;54.10;;;;;;5072330;28;1965;-67
2022/04/27 08:59:08;;;;;;;;;;;19.90;54.10;;;;;;5067364;28;1606;-68
2022/04/27 09:01:34;;;;;;;;;;;19.90;54.10;;;;;;5071923;28;1216;-68
2022/04/27 09:04:10;;;;;;;;;;;19.90;54.20;;;;;;5074480;28;1418;-68
2022/04/27 09:06:39;;;;;;;;;;;19.90;54.30;;;;;;5060004;28;1282;-68
2022/04/27 09:09:04;;;;;;;;;;;19.90;54.40;;;;;;5063990;28;1418;-68
2022/04/27 09:11:32;;;;;;;;;;;19.80;54.40;;;;;;5073881;28;1298;-67
2022/04/27 09:13:58;;;;;;;;;;;19.80;54.40;;;;;;5074250;28;1341;-68
2022/04/27 09:16:27;;;;;;;;;;;19.80;54.50;;;;;;5074709;28;1902;-68
2022/04/27 09:21:52;;;;;;;;;;;19.80;54.60;;;;;;5054718;28;1282;-67
2022/04/27 09:24:17;;;;;;;;;;;19.70;54.60;;;;;;5054714;28;1340;-68
2022/04/27 09:26:43;;;;;;;;;;;19.70;54.70;;;;;;5054189;28;1264;-68
2022/04/27 09:29:09;;;;;;;;;;;19.70;54.70;;;;;;5064092;28;1381;-68
2022/04/27 09:31:37;;;;;;;;;;;19.70;54.80;;;;;;5105302;28;1241;-67
2022/04/27 09:34:03;;;;;;;;;;;19.70;54.80;;;;;;5072388;28;1302;-67
2022/04/27 09:36:28;;;;;;;;;;;19.60;54.80;;;;;;5073060;28;1910;-67
2022/04/27 09:38:55;;;;;;;;;;;19.60;54.90;;;;;;5068174;28;1303;-67
2022/04/27 09:41:37;;;;;;;;;;;19.60;55.50;;;;;;5074128;28;1272;-67
2022/04/27 09:44:03;;;;;;;;;;;19.60;54.90;;;;;;5105924;28;1272;-67
2022/04/27 09:46:28;;;;;;;;;;;19.60;55.00;;;;;;5107135;28;1276;-67
2022/04/27 09:49:07;;;;;;;;;;;19.60;55.00;;;;;;5073507;28;1264;-67
2022/04/27 09:51:33;;;;;;;;;;;19.60;55.10;;;;;;5073656;28;1153;-67
2022/04/27 09:53:59;;;;;;;;;;;19.50;55.10;;;;;;5106638;28;1282;-67
2022/04/27 09:56:24;;;;;;;;;;;19.50;55.20;;;;;;5106234;28;1972;-67
2022/04/27 09:58:50;;;;;;;;;;;19.50;55.20;;;;;;5105618;28;1351;-67
2022/04/27 10:01:15;;;;;;;;;;;19.50;55.20;;;;;;5073278;28;1055;-67
2022/04/27 10:03:41;;;;;;;;;;;19.50;55.30;;;;;;5106242;28;1376;-67
2022/04/27 10:06:07;;;;;;;;;;;19.50;55.30;;;;;;5089094;28;1169;-67
2022/04/27 10:08:34;;;;;;;;;;;19.50;55.40;;;;;;5106476;28;1428;-67
2022/04/27 10:11:00;;;;;;;;;;;19.40;55.30;;;;;;5073928;28;1331;-67
2022/04/27 10:13:25;;;;;;;;;;;19.40;55.30;;;;;;5105338;28;1536;-67
2022/04/27 10:15:51;;;;;;;;;;;19.40;55.40;;;;;;5064717;28;1150;-67
2022/04/27 10:18:17;;;;;;;;;;;19.40;55.40;;;;;;5100893;28;1902;-66
2022/04/27 10:20:43;;;;;;;;;;;19.40;55.50;;;;;;5052053;28;1280;-67
2022/04/27 10:23:31;;;;;;;;;;;19.40;55.50;;;;;;5053268;28;1408;-67
2022/04/27 10:26:05;;;;;;;;;;;19.40;55.50;;;;;;5068064;28;1820;-67
2022/04/27 10:28:33;;;;;;;;;;;19.40;55.60;;;;;;5072399;28;1273;-67
2022/04/27 10:31:01;;;;;;;;;;;19.40;55.60;;;;;;5073188;28;1337;-67
2022/04/27 10:33:45;;;;;;;;;;;19.40;55.60;;;;;;5073173;28;1341;-67
2022/04/27 10:36:29;;;;;;;;;;;19.30;55.60;;;;;;5072518;28;1262;-67
2022/04/27 10:39:26;;;;;;;;;;;19.30;55.60;;;;;;5072112;28;1339;-67
2022/04/27 10:41:56;;;;;;;;;;;19.30;55.70;;;;;;5071385;28;1312;-67
2022/04/27 10:44:21;;;;;;;;;;;19.30;55.70;;;;;;5105170;28;1288;-67
2022/04/27 10:46:47;;;;;;;;;;;19.30;55.80;;;;;;5072758;28;1332;-68
2022/04/27 10:49:22;;;;;;;;;;;19.30;55.80;;;;;;5105277;28;1293;-67
2022/04/27 10:52:09;;;;;;;;;;;19.30;55.90;;;;;;5105082;28;1557;-67
2022/04/27 10:54:37;;;;;;;;;;;19.30;55.90;;;;;;5088526;28;1355;-67
2022/04/27 10:57:28;;;;;;;;;;;19.20;55.90;;;;;;5103766;28;1909;-68
2022/04/27 10:59:59;;;;;;;;;;;19.30;55.90;;;;;;5071315;28;1496;-67
2022/04/27 11:02:31;;;;;;;;;;;19.20;56.00;;;;;;5071140;28;1337;-67
2022/04/27 11:04:57;;;;;;;;;;;19.30;56.10;;;;;;5072657;28;1273;-67
2022/04/27 11:07:22;;;;;;;;;;;19.20;56.00;;;;;;5071989;28;1305;-67
2022/04/27 11:09:50;;;;;;;;;;;19.20;56.00;;;;;;5072335;28;1264;-67
2022/04/27 11:12:15;;;;;;;;;;;19.20;56.10;;;;;;5104019;28;1245;-67
2022/04/27 11:14:41;;;;;;;;;;;19.20;56.10;;;;;;5095658;28;1378;-68
2022/04/27 11:17:06;;;;;;;;;;;19.20;56.10;;;;;;5104294;28;1957;-67
2022/04/27 11:19:38;;;;;;;;;;;19.20;56.20;;;;;;5071815;28;1282;-67
2022/04/27 11:22:14;;;;;;;;;;;19.20;56.20;;;;;;5072373;28;1287;-68
2022/04/27 11:24:40;;;;;;;;;;;19.20;56.50;;;;;;5072482;28;1302;-67
2022/04/27 11:27:05;;;;;;;;;;;19.20;56.40;;;;;;5071472;28;1321;-68
2022/04/27 11:29:32;;;;;;;;;;;19.10;56.30;;;;;;5071812;28;1248;-68
2022/04/27 11:31:58;;;;;;;;;;;19.10;56.40;;;;;;5104521;28;1281;-68
2022/04/27 11:34:24;;;;;;;;;;;19.10;55.40;;;;;;5072343;28;1072;-68
2022/04/27 11:36:50;;;;;;;;;;;19.20;53.90;;;;;;5103986;28;1906;-68
2022/04/27 11:39:22;;;;;;;;;;;19.20;52.50;;;;;;5070649;28;1326;-67
2022/04/27 11:41:56;;;;;;;;;;;19.20;53.30;;;;;;5071888;28;1258;-68
2022/04/27 11:44:21;;;;;;;;;;;19.20;52.70;;;;;;5104800;28;1184;-67
2022/04/27 11:46:47;;;;;;;;;;;19.20;52.20;;;;;;5104635;28;1061;-68
2022/04/27 11:49:12;;;;;;;;;;;19.20;52.90;;;;;;5103407;28;1380;-68
2022/04/27 11:51:38;;;;;;;;;;;19.20;52.20;;;;;;5072114;28;1333;-68
2022/04/27 11:54:03;;;;;;;;;;;19.20;52.70;;;;;;5071809;28;1215;-67
2022/04/27 11:56:34;;;;;;;;;;;19.20;52.80;;;;;;5071722;28;1915;-67
2022/04/27 11:59:06;;;;;;;;;;;19.20;52.10;;;;;;5070759;28;1395;-70
2022/04/27 12:01:31;;;;;;;;;;;19.20;52.40;;;;;;5071986;28;1381;-68
2022/04/27 12:03:57;;;;;;;;;;;19.10;51.20;;;;;;5070563;28;1254;-69
2022/04/27 12:06:23;;;;;;;;;;;19.10;50.10;;;;;;5071001;28;1878;-69
2022/04/27 12:08:49;;;;;;;;;;;19.10;48.00;;;;;;5072888;28;1389;-69
2022/04/27 12:11:21;;;;;;;;;;;19.10;47.50;;;;;;5073844;28;1078;-71
2022/04/27 12:13:47;;;;;;;;;;;19.10;48.70;;;;;;5069845;28;1459;-69
2022/04/27 12:16:12;;;;;;;;;;;19.10;49.30;;;;;;5077060;28;1280;-68
2022/04/27 12:18:40;;;;;;;;;;;19.10;49.10;;;;;;5095526;28;1901;-69
2022/04/27 12:21:17;;;;;;;;;;;19.10;49.60;;;;;;5064070;28;1356;-70
2022/04/27 12:23:43;;;;;;;;;;;19.10;49.70;;;;;;5104052;28;1271;-70
2022/04/27 12:26:11;;;;;;;;;;;19.10;49.80;;;;;;5075787;28;1236;-71
2022/04/27 12:28:46;;;;;;;;;;;19.10;49.10;;;;;;5074570;28;1258;-70
2022/04/27 12:31:14;;;;;;;;;;;19.10;48.60;;;;;;5075582;28;1360;-70
2022/04/27 12:33:44;;;;;;;;;;;19.10;48.70;;;;;;5075400;28;1372;-70
2022/04/27 12:39:10;;;;;;;;;;;19.10;49.30;;;;;;5069428;28;1396;-70
2022/04/27 12:41:43;;;;;;;;;;;19.10;48.90;;;;;;5107733;28;1300;-70
2022/04/27 12:44:10;;;;;;;;;;;19.00;48.80;;;;;;5105799;28;1244;-71
2022/04/27 12:46:35;;;;;;;;;;;19.10;49.10;;;;;;5074777;28;1371;-70
2022/04/27 12:49:02;;;;;;;;;;;19.10;48.20;;;;;;5106902;28;1274;-71
2022/04/27 12:51:28;;;;;;;;;;;19.10;47.70;;;;;;5075129;28;1250;-70
2022/04/27 12:53:54;;;;;;;;;;;19.00;48.90;;;;;;5074923;28;1289;-70
2022/04/27 12:56:22;;;;;;;;;;;19.10;48.80;;;;;;5107376;28;1446;-69
2022/04/27 12:59:05;;;;;;;;;;;19.00;47.60;;;;;;5073630;28;1976;-70
2022/04/27 13:01:31;;;;;;;;;;;19.10;47.30;;;;;;5074811;28;1098;-71
2022/04/27 13:03:56;;;;;;;;;;;19.00;46.70;;;;;;5107347;28;1018;-70
2022/04/27 13:06:22;;;;;;;;;;;19.10;47.60;;;;;;5074765;28;1291;-71
2022/04/27 13:08:48;;;;;;;;;;;19.10;47.20;;;;;;5073937;28;1279;-72
2022/04/27 13:13:58;;;;;;;;;;;19.10;45.80;;;;;;5068975;28;1383;-72
2022/04/27 13:16:25;;;;;;;;;;;19.10;46.90;;;;;;5070621;28;1297;-71
2022/04/27 13:18:50;;;;;;;;;;;19.10;46.90;;;;;;5073788;28;1898;-71
2022/04/27 13:21:16;;;;;;;;;;;19.10;48.00;;;;;;5074240;28;1294;-71
2022/04/27 13:23:42;;;;;;;;;;;19.00;48.00;;;;;;5074456;28;1290;-71
2022/04/27 13:26:07;;;;;;;;;;;19.00;47.80;;;;;;5106647;28;1335;-71
2022/04/27 13:28:35;;;;;;;;;;;19.00;48.20;;;;;;5073743;28;1249;-71
2022/04/27 13:31:02;;;;;;;;;;;19.00;48.30;;;;;;5073951;28;1313;-71
2022/04/27 13:33:28;;;;;;;;;;;19.00;48.40;;;;;;5074186;28;1358;-68
2022/04/27 13:35:53;;;;;;;;;;;19.00;48.50;;;;;;5092901;28;2228;-70
2022/04/27 13:38:19;;;;;;;;;;;18.90;48.30;;;;;;5069598;28;1902;-68
2022/04/27 13:40:46;;;;;;;;;;;18.90;48.80;;;;;;5072706;28;1125;-68
2022/04/27 13:43:12;;;;;;;;;;;18.90;48.50;;;;;;5103258;28;1366;-68
2022/04/27 13:45:37;;;;;;;;;;;18.90;49.30;;;;;;5105889;28;1440;-67
2022/04/27 13:48:03;;;;;;;;;;;18.90;48.20;;;;;;5072458;28;1258;-70
2022/04/27 13:50:28;;;;;;;;;;;18.90;48.70;;;;;;5072812;28;1321;-68
2022/04/27 13:52:54;;;;;;;;;;;18.90;49.10;;;;;;5073295;28;1278;-70
2022/04/27 13:55:19;;;;;;;;;;;18.90;49.30;;;;;;5106400;28;1259;-67
2022/04/27 13:57:45;;;;;;;;;;;18.90;49.60;;;;;;5073167;28;1902;-67
2022/04/27 14:00:11;;;;;;;;;;;18.90;49.70;;;;;;5072569;28;1380;-68
2022/04/27 14:02:36;;;;;;;;;;;18.90;49.80;;;;;;5073011;28;1320;-68
2022/04/27 14:05:02;;;;;;;;;;;18.90;50.20;;;;;;5072172;28;1111;-72
2022/04/27 14:07:27;;;;;;;;;;;18.90;50.50;;;;;;5072311;28;1306;-73
2022/04/27 14:09:53;;;;;;;;;;;18.90;50.60;;;;;;5104801;28;1311;-72
2022/04/27 14:15:02;;;;;;;;;;;18.90;51.00;;;;;;5063930;28;1315;-70
2022/04/27 14:20:12;;;;;;;;;;;18.80;51.30;;;;;;5070323;28;1279;-69
2022/04/27 14:22:37;;;;;;;;;;;18.80;51.40;;;;;;5070298;28;1219;-68
2022/04/27 14:25:03;;;;;;;;;;;18.80;51.50;;;;;;5069278;28;1211;-68
2022/04/27 14:27:29;;;;;;;;;;;18.80;51.60;;;;;;5070382;28;1309;-71
2022/04/27 14:29:54;;;;;;;;;;;18.80;51.80;;;;;;5072224;28;1314;-69
2022/04/27 14:32:19;;;;;;;;;;;18.80;51.90;;;;;;5072363;28;1303;-71
2022/04/27 14:34:45;;;;;;;;;;;18.80;52.00;;;;;;5071911;28;1280;-68
2022/04/27 14:37:10;;;;;;;;;;;18.80;52.10;;;;;;5104140;28;1960;-66
2022/04/27 14:39:36;;;;;;;;;;;18.80;52.20;;;;;;5073224;28;1211;-68
2022/04/27 14:42:01;;;;;;;;;;;18.80;52.30;;;;;;5072635;28;1388;-68
2022/04/27 14:44:27;;;;;;;;;;;18.80;52.40;;;;;;5072061;28;1364;-69
2022/04/27 14:46:52;;;;;;;;;;;18.80;52.50;;;;;;5071400;28;1314;-69
2022/04/27 14:49:20;;;;;;;;;;;18.80;52.60;;;;;;5071541;28;1327;-68
2022/04/27 14:51:46;;;;;;;;;;;18.80;52.60;;;;;;5103159;28;1334;-67
2022/04/27 14:54:11;;;;;;;;;;;18.80;52.80;;;;;;5104610;28;1372;-70
2022/04/27 14:56:37;;;;;;;;;;;18.80;52.80;;;;;;5104017;28;1906;-68